Time;durP1;ratioP1;P1;durP2;ratioP2;P2;SDS_P1;SDS_P2;PMS_P1;PMS_P2;Temp;Humidity;BMP_temperature;BMP_pressure;BME280_temperature;BME280_humidity;BME280_pressure;Samples;Min_cycle;Max_cycle;Signal;HPM_P1;HPM_P2
2021/11/26 00:02:26;;;;;;;13.30;8.77;;;;;;;3.70;61.16;99030.25;5033207;28;20484;-59
2021/11/26 00:04:53;;;;;;;16.02;8.07;;;;;;;3.72;60.97;99036.28;5031736;28;20025;-56
2021/11/26 00:07:21;;;;;;;13.50;8.40;;;;;;;3.45;60.88;98986.84;5032389;28;20030;-61
2021/11/26 00:09:47;;;;;;;13.40;8.95;;;;;;;3.62;61.38;99018.47;5033013;28;20057;-58
2021/11/26 00:12:13;;;;;;;13.48;8.60;;;;;;;3.65;61.37;99036.81;5033036;28;20034;-56
2021/11/26 00:15:05;;;;;;;12.57;8.60;;;;;;;3.64;61.26;99030.66;5031602;28;20025;-58
2021/11/26 00:17:34;;;;;;;12.93;8.32;;;;;;;3.55;61.66;99016.22;5032890;28;20030;-59
2021/11/26 00:20:00;;;;;;;13.48;8.80;;;;;;;3.68;61.12;99033.97;5032500;28;20149;-55
2021/11/26 00:22:26;;;;;;;13.90;8.80;;;;;;;3.61;60.89;99032.66;5032242;28;20037;-62
2021/11/26 00:24:53;;;;;;;13.90;8.68;;;;;;;3.49;61.28;98995.44;5031629;28;20099;-56
2021/11/26 00:27:19;;;;;;;15.43;9.25;;;;;;;3.68;60.88;99026.03;5032610;28;20388;-59
2021/11/26 00:29:45;;;;;;;14.88;9.15;;;;;;;3.58;60.93;99023.97;5033236;28;20107;-53
2021/11/26 00:32:10;;;;;;;12.32;8.75;;;;;;;3.66;60.89;99020.81;5032908;28;20041;-60
2021/11/26 00:34:36;;;;;;;12.43;8.90;;;;;;;3.58;61.71;99010.72;5032428;28;20049;-58
2021/11/26 00:37:03;;;;;;;16.42;9.30;;;;;;;3.58;61.61;99041.66;5033168;28;20037;-55
2021/11/26 00:39:28;;;;;;;15.70;9.27;;;;;;;3.57;61.28;99011.66;5032997;28;20033;-57
2021/11/26 00:41:54;;;;;;;14.35;8.93;;;;;;;3.54;61.66;99011.88;5032461;28;20036;-57
2021/11/26 00:44:19;;;;;;;15.55;9.75;;;;;;;3.57;62.03;99019.63;5031159;28;20140;-57
2021/11/26 00:46:45;;;;;;;15.13;9.38;;;;;;;3.55;61.08;99018.03;5032791;28;20025;-57
2021/11/26 00:49:11;;;;;;;15.70;9.43;;;;;;;3.54;61.56;99017.16;5030808;28;20373;-58
2021/11/26 00:51:37;;;;;;;15.13;9.30;;;;;;;3.47;61.81;98985.91;5032165;28;20037;-55
2021/11/26 00:54:03;;;;;;;15.55;8.95;;;;;;;3.61;61.03;99003.53;5032684;28;20033;-58
2021/11/26 00:56:28;;;;;;;13.45;9.20;;;;;;;3.58;61.59;99008.06;5032632;28;20474;-57
2021/11/26 00:58:54;;;;;;;15.68;10.65;;;;;;;3.59;61.04;99006.28;5031119;28;20033;-56
2021/11/26 01:01:19;;;;;;;15.35;9.77;;;;;;;3.54;61.26;99009.22;5032033;28;20037;-58
2021/11/26 01:03:45;;;;;;;14.70;10.13;;;;;;;3.50;61.45;98986.56;5032802;28;20466;-59
2021/11/26 01:06:11;;;;;;;16.23;10.20;;;;;;;3.59;61.34;99001.00;5032061;28;20038;-58
2021/11/26 01:08:36;;;;;;;17.98;10.77;;;;;;;3.56;60.93;98991.44;5030907;28;20493;-59
2021/11/26 01:11:03;;;;;;;17.13;10.32;;;;;;;3.34;61.10;98968.19;5030874;28;20516;-60
2021/11/26 01:13:28;;;;;;;16.73;10.45;;;;;;;3.52;60.87;98987.31;5031506;28;20037;-58
2021/11/26 01:15:54;;;;;;;17.00;10.60;;;;;;;3.53;61.12;98996.09;5030801;28;20068;-57
2021/11/26 01:18:21;;;;;;;17.83;10.98;;;;;;;3.45;61.33;98984.19;5030683;28;20041;-60
2021/11/26 01:20:48;;;;;;;17.40;10.70;;;;;;;3.48;61.98;98993.75;5031757;28;20354;-58
2021/11/26 01:23:14;;;;;;;16.67;10.15;;;;;;;3.50;60.67;98980.44;5032113;28;20395;-58
2021/11/26 01:25:40;;;;;;;17.60;11.13;;;;;;;3.38;61.37;98966.19;5031516;28;20456;-58
2021/11/26 01:28:07;;;;;;;17.95;11.35;;;;;;;3.48;61.85;98977.00;5030249;28;20386;-58
2021/11/26 01:30:41;;;;;;;17.83;10.88;;;;;;;3.49;61.90;98965.47;5030114;28;20045;-57
2021/11/26 01:33:10;;;;;;;17.40;11.25;;;;;;;3.56;61.37;98982.66;5031904;28;20045;-58
2021/11/26 01:35:38;;;;;;;17.52;10.85;;;;;;;3.54;61.18;98977.47;5031712;28;20033;-59
2021/11/26 01:38:05;;;;;;;16.08;10.40;;;;;;;3.56;61.51;98988.81;5031397;28;20370;-57
2021/11/26 01:40:32;;;;;;;18.85;11.57;;;;;;;3.60;61.05;98976.22;5031834;28;20096;-58
2021/11/26 01:42:58;;;;;;;18.50;11.20;;;;;;;3.56;60.96;98972.09;5031867;28;20107;-55
2021/11/26 01:45:24;;;;;;;15.82;10.57;;;;;;;3.63;60.72;98980.47;5031674;28;20382;-56
2021/11/26 01:47:50;;;;;;;17.92;11.38;;;;;;;3.61;60.36;98963.81;5029917;28;20067;-54
2021/11/26 01:50:19;;;;;;;17.77;11.20;;;;;;;3.42;61.04;98936.78;5031048;28;20033;-57
2021/11/26 01:52:46;;;;;;;16.45;11.07;;;;;;;3.57;60.74;98963.19;5031288;28;20083;-56
2021/11/26 01:55:13;;;;;;;18.25;10.77;;;;;;;3.55;60.76;98958.00;5031275;28;20434;-54
2021/11/26 01:57:39;;;;;;;18.08;11.88;;;;;;;3.57;60.50;98948.16;5031059;28;20033;-57
2021/11/26 02:00:10;;;;;;;19.98;11.38;;;;;;;3.56;60.68;98956.22;5031054;28;20025;-57
2021/11/26 02:02:36;;;;;;;17.67;11.40;;;;;;;3.56;60.55;98950.91;5029599;28;20053;-58
2021/11/26 02:05:02;;;;;;;18.48;11.35;;;;;;;3.50;60.86;98965.38;5030203;28;20064;-58
2021/11/26 02:07:29;;;;;;;19.08;11.68;;;;;;;3.44;60.86;98937.53;5030622;28;20030;-57
2021/11/26 02:09:54;;;;;;;18.83;11.32;;;;;;;3.52;60.48;98944.97;5030970;28;20370;-55
2021/11/26 02:12:20;;;;;;;16.55;10.90;;;;;;;3.51;60.47;98945.91;5031328;28;20037;-56
2021/11/26 02:14:46;;;;;;;18.10;11.43;;;;;;;3.51;59.92;98940.63;5030605;28;20481;-57
2021/11/26 02:17:13;;;;;;;18.38;11.73;;;;;;;3.40;60.43;98927.25;5031069;28;20108;-56
2021/11/26 02:19:39;;;;;;;19.02;11.60;;;;;;;3.48;60.85;98946.13;5029591;28;20040;-58
2021/11/26 02:22:05;;;;;;;18.25;11.35;;;;;;;3.48;60.53;98946.13;5030958;28;20034;-57
2021/11/26 02:24:31;;;;;;;17.95;11.52;;;;;;;3.50;60.64;98932.78;5031074;28;20085;-58
2021/11/26 02:26:56;;;;;;;18.58;12.23;;;;;;;3.34;59.60;98906.47;5030832;28;20029;-59
2021/11/26 02:29:24;;;;;;;16.20;11.15;;;;;;;3.58;59.52;98915.44;5030236;28;20053;-56
2021/11/26 02:31:50;;;;;;;21.90;11.80;;;;;;;3.28;59.99;98881.28;5031023;28;20033;-60
2021/11/26 02:34:17;;;;;;;18.08;10.85;;;;;;;3.49;59.53;98921.34;5030989;28;20089;-58
2021/11/26 02:36:43;;;;;;;17.52;11.13;;;;;;;3.46;59.91;98910.97;5030635;28;20025;-54
2021/11/26 02:39:09;;;;;;;17.10;11.32;;;;;;;3.41;59.87;98907.78;5030509;28;20034;-58
2021/11/26 02:41:40;;;;;;;18.92;11.65;;;;;;;3.52;60.17;98915.00;5031191;28;20138;-58
2021/11/26 02:44:07;;;;;;;18.15;12.20;;;;;;;3.50;59.76;98917.75;5030832;28;20437;-57
2021/11/26 02:46:33;;;;;;;18.13;12.13;;;;;;;3.50;59.22;98917.75;5029687;28;20060;-55
2021/11/26 02:48:58;;;;;;;20.23;12.32;;;;;;;3.50;59.82;98922.22;5030906;28;20053;-60
2021/11/26 02:51:24;;;;;;;21.70;11.90;;;;;;;3.50;59.92;98906.34;5030604;28;20030;-54
2021/11/26 02:53:50;;;;;;;17.80;12.40;;;;;;;3.55;59.20;98906.88;5030538;28;20029;-57
2021/11/26 02:56:15;;;;;;;18.75;11.50;;;;;;;3.55;58.83;98904.22;5030387;28;20048;-58
2021/11/26 02:58:41;;;;;;;19.20;11.40;;;;;;;3.59;59.28;98898.59;5030730;28;20167;-56
2021/11/26 03:01:07;;;;;;;18.38;11.95;;;;;;;3.47;59.02;98907.38;5030993;28;20044;-57
2021/11/26 03:03:33;;;;;;;18.80;11.93;;;;;;;3.40;59.34;98898.16;5030627;28;20033;-57
2021/11/26 03:06:01;;;;;;;19.00;11.77;;;;;;;3.33;58.71;98851.84;5030524;28;20107;-57
2021/11/26 03:08:28;;;;;;;19.95;11.35;;;;;;;3.45;58.73;98885.47;5031020;28;20034;-56
2021/11/26 03:10:54;;;;;;;18.60;12.05;;;;;;;3.47;58.75;98874.75;5030445;28;20128;-56
2021/11/26 03:13:20;;;;;;;21.73;11.32;;;;;;;3.45;58.41;98883.63;5030223;28;20474;-53
2021/11/26 03:15:46;;;;;;;16.80;11.52;;;;;;;3.47;58.91;98882.69;5030194;28;20036;-56
2021/11/26 03:18:16;;;;;;;22.15;12.27;;;;;;;3.43;58.85;98876.78;5030692;28;20079;-55
2021/11/26 03:20:42;;;;;;;17.48;11.48;;;;;;;3.51;58.41;98884.22;5029258;28;20044;-57
2021/11/26 03:23:08;;;;;;;20.40;12.23;;;;;;;3.44;58.60;98870.53;5030701;28;20029;-57
2021/11/26 03:25:33;;;;;;;18.02;11.85;;;;;;;3.42;59.21;98878.56;5012206;28;20096;-57
2021/11/26 03:27:59;;;;;;;18.27;11.70;;;;;;;3.40;58.48;98863.75;5030559;28;20033;-58
2021/11/26 03:30:25;;;;;;;17.77;11.25;;;;;;;3.34;59.01;98865.00;5030641;28;20073;-51
2021/11/26 03:32:51;;;;;;;23.92;12.10;;;;;;;3.35;58.87;98855.25;5029110;28;20138;-52
2021/11/26 03:35:18;;;;;;;18.52;11.50;;;;;;;3.35;58.71;98847.31;5029980;28;20507;-55
2021/11/26 03:37:45;;;;;;;23.58;13.10;;;;;;;3.37;58.35;98859.50;5030878;28;20386;-58
2021/11/26 03:40:15;;;;;;;17.63;11.40;;;;;;;3.37;58.64;98856.84;5030363;28;20485;-54
2021/11/26 03:42:41;;;;;;;17.95;11.00;;;;;;;3.30;58.80;98853.75;5032974;28;20041;-59
2021/11/26 03:45:08;;;;;;;19.55;12.48;;;;;;;3.40;58.76;98850.53;5034026;28;20458;-56
2021/11/26 03:47:33;;;;;;;18.38;11.77;;;;;;;3.37;57.79;98848.06;5034034;28;20125;-53
2021/11/26 03:49:59;;;;;;;21.05;12.15;;;;;;;3.33;58.52;98850.06;5033294;28;20175;-56
2021/11/26 03:52:25;;;;;;;21.15;12.27;;;;;;;3.29;58.09;98836.19;5033695;28;20448;-56
2021/11/26 03:54:50;;;;;;;16.85;11.25;;;;;;;3.24;58.52;98833.00;5033655;28;20029;-56
2021/11/26 03:57:16;;;;;;;21.77;12.18;;;;;;;3.28;58.81;98823.09;5033316;28;20034;-53
2021/11/26 03:59:42;;;;;;;17.75;11.85;;;;;;;3.03;58.78;98781.53;5033399;28;20108;-57
2021/11/26 04:02:09;;;;;;;19.10;12.00;;;;;;;3.22;58.75;98813.75;5033603;28;20112;-57
2021/11/26 04:04:35;;;;;;;19.30;11.80;;;;;;;3.23;58.20;98823.38;5033271;28;20029;-52
2021/11/26 04:07:01;;;;;;;18.33;11.88;;;;;;;3.23;58.53;98831.31;5033214;28;20029;-56
2021/11/26 04:09:26;;;;;;;19.33;12.38;;;;;;;3.29;58.32;98833.53;5033198;28;20034;-57
2021/11/26 04:11:52;;;;;;;17.40;11.48;;;;;;;3.29;58.54;98825.59;5033212;28;20393;-58
2021/11/26 04:14:18;;;;;;;20.70;12.55;;;;;;;3.32;58.41;98836.94;5033167;28;20064;-51
2021/11/26 04:16:45;;;;;;;21.25;12.23;;;;;;;3.22;58.44;98832.25;5031941;28;20071;-55
2021/11/26 04:19:11;;;;;;;19.33;12.18;;;;;;;3.23;58.46;98831.31;5033453;28;20040;-54
2021/11/26 04:21:37;;;;;;;17.50;11.25;;;;;;;3.27;57.83;98842.56;5033249;28;20029;-56
2021/11/26 04:24:03;;;;;;;18.90;11.77;;;;;;;3.24;58.05;98843.59;5031795;28;20889;-56
2021/11/26 04:26:30;;;;;;;16.42;10.73;;;;;;;3.24;57.93;98846.25;5032850;28;20036;-54
2021/11/26 04:28:56;;;;;;;17.25;11.55;;;;;;;3.22;58.13;98855.22;5031688;28;20109;-56
2021/11/26 04:31:22;;;;;;;18.50;11.25;;;;;;;3.22;57.80;98852.56;5032463;28;20115;-62
2021/11/26 04:33:48;;;;;;;17.23;11.70;;;;;;;3.20;58.18;98855.31;5032659;28;20521;-59
2021/11/26 04:36:14;;;;;;;16.95;11.02;;;;;;;3.30;57.38;98859.06;5032544;28;20029;-59
2021/11/26 04:38:40;;;;;;;18.08;10.93;;;;;;;3.29;57.02;98844.13;5031743;28;20112;-50
2021/11/26 04:41:07;;;;;;;18.80;11.43;;;;;;;3.18;57.48;98832.56;5032200;28;20033;-54
2021/11/26 04:43:32;;;;;;;19.40;11.43;;;;;;;3.17;57.31;98831.72;5032682;28;20029;-51
2021/11/26 04:45:58;;;;;;;16.55;10.88;;;;;;;3.18;57.42;98824.63;5032772;28;20056;-52
2021/11/26 04:48:24;;;;;;;18.27;11.57;;;;;;;3.19;57.51;98840.41;5032242;28;20029;-51
2021/11/26 04:50:51;;;;;;;17.50;10.98;;;;;;;3.16;57.32;98837.97;5032247;28;20036;-54
2021/11/26 04:53:18;;;;;;;19.88;11.50;;;;;;;3.22;57.07;98832.25;5031173;28;20078;-53
2021/11/26 04:55:44;;;;;;;15.60;10.68;;;;;;;3.19;56.89;98840.41;5031918;28;20075;-52
2021/11/26 04:58:09;;;;;;;29.50;18.48;;;;;;;3.15;56.72;98829.16;5031929;28;20033;-53
2021/11/26 05:00:35;;;;;;;27.52;14.68;;;;;;;3.21;57.74;98849.09;5032442;28;20029;-55
2021/11/26 05:03:01;;;;;;;17.08;10.23;;;;;;;3.22;56.93;98823.47;5031074;28;20022;-54
2021/11/26 05:05:27;;;;;;;17.80;11.38;;;;;;;3.23;56.92;98838.38;5032528;28;20033;-54
2021/11/26 05:07:53;;;;;;;18.33;10.38;;;;;;;3.21;57.36;98846.44;5031455;28;20060;-56
2021/11/26 05:10:20;;;;;;;17.10;11.30;;;;;;;3.20;56.90;98836.81;5031868;28;20399;-57
2021/11/26 05:12:55;;;;;;;19.88;10.10;;;;;;;3.22;57.04;98802.31;5032094;28;20442;-56
2021/11/26 05:15:26;;;;;;;14.65;10.35;;;;;;;3.23;57.09;98826.03;5032360;28;20045;-58
2021/11/26 05:18:00;;;;;;;16.75;10.68;;;;;;;3.27;56.94;98818.75;5030400;28;20065;-57
2021/11/26 05:20:28;;;;;;;18.33;11.13;;;;;;;3.19;56.91;98819.25;5031185;28;20482;-55
2021/11/26 05:22:54;;;;;;;17.63;10.23;;;;;;;3.14;57.36;98824.00;5032300;28;20029;-58
2021/11/26 05:25:20;;;;;;;17.08;10.75;;;;;;;3.19;56.56;98807.81;5031803;28;20087;-58
2021/11/26 05:27:47;;;;;;;16.58;10.90;;;;;;;3.13;57.16;98801.13;5031989;28;20033;-58
2021/11/26 05:30:14;;;;;;;16.70;10.27;;;;;;;3.13;57.32;98796.69;5030281;28;20141;-53
2021/11/26 05:32:40;;;;;;;17.73;11.65;;;;;;;3.16;56.84;98800.94;5031370;28;20425;-54
2021/11/26 05:35:11;;;;;;;15.85;11.07;;;;;;;3.14;56.96;98781.69;5031233;28;20040;-58
2021/11/26 05:37:37;;;;;;;21.00;11.88;;;;;;;3.19;57.03;98808.66;5030142;28;20481;-53
2021/11/26 05:40:05;;;;;;;16.95;11.10;;;;;;;3.21;57.18;98793.53;5030989;28;20040;-52
2021/11/26 05:42:31;;;;;;;15.40;10.38;;;;;;;3.24;56.98;98793.31;5030449;28;20029;-59
2021/11/26 05:44:56;;;;;;;19.10;11.32;;;;;;;3.28;56.98;98786.03;5031391;28;20445;-55
2021/11/26 05:47:22;;;;;;;18.30;11.20;;;;;;;3.31;57.16;98804.34;5031064;28;20029;-58
2021/11/26 05:49:48;;;;;;;17.85;11.80;;;;;;;3.29;56.43;98783.28;5030046;28;20426;-57
2021/11/26 05:52:14;;;;;;;17.83;11.50;;;;;;;3.30;56.22;98787.63;5031280;28;20580;-53
2021/11/26 05:54:39;;;;;;;16.73;10.77;;;;;;;2.89;56.95;98714.53;5029528;28;20132;-57
2021/11/26 05:57:05;;;;;;;17.45;11.48;;;;;;;3.37;56.27;98789.84;5031077;28;20060;-57
2021/11/26 05:59:31;;;;;;;18.00;11.63;;;;;;;3.32;56.64;98786.66;5030687;28;20029;-59
2021/11/26 06:01:58;;;;;;;16.98;11.02;;;;;;;3.38;56.62;98797.69;5029961;28;20099;-56
2021/11/26 06:04:25;;;;;;;15.77;10.65;;;;;;;3.44;56.82;98776.09;5030268;28;20031;-58
2021/11/26 06:06:51;;;;;;;17.75;11.63;;;;;;;3.46;56.41;98783.94;5030759;28;20029;-57
2021/11/26 06:09:16;;;;;;;22.00;10.70;;;;;;;3.24;56.85;98721.03;5031457;28;20550;-56
2021/11/26 06:11:42;;;;;;;15.40;10.63;;;;;;;3.47;56.76;98772.41;5030772;28;20025;-60
2021/11/26 06:14:07;;;;;;;15.18;10.50;;;;;;;3.26;56.61;98729.75;5029582;28;20462;-59
2021/11/26 06:16:33;;;;;;;21.42;11.85;;;;;;;3.20;57.05;98728.34;5031133;28;20454;-54
2021/11/26 06:18:59;;;;;;;16.73;11.05;;;;;;;3.45;56.65;98755.78;5030675;28;20029;-59
2021/11/26 06:21:24;;;;;;;14.82;11.18;;;;;;;3.47;56.33;98767.13;5030407;28;20072;-57
2021/11/26 06:23:50;;;;;;;17.02;11.18;;;;;;;3.44;56.41;98764.69;5030996;28;20095;-57
2021/11/26 06:26:16;;;;;;;16.38;11.05;;;;;;;3.47;57.23;98769.75;5030791;28;20029;-58
2021/11/26 06:28:41;;;;;;;23.00;11.57;;;;;;;3.43;56.86;98753.22;5033031;28;20067;-60
2021/11/26 06:31:07;;;;;;;18.48;10.80;;;;;;;3.29;56.75;98738.31;5040171;28;20391;-59
2021/11/26 06:33:32;;;;;;;21.38;11.13;;;;;;;3.30;56.80;98745.28;5050811;28;20109;-57
2021/11/26 06:35:58;;;;;;;16.20;10.88;;;;;;;3.49;56.63;98772.28;5040012;28;20457;-60
2021/11/26 06:38:24;;;;;;;17.35;11.02;;;;;;;3.57;57.05;98791.16;5038771;28;20079;-60
2021/11/26 06:40:49;;;;;;;18.00;11.25;;;;;;;3.59;56.63;98783.97;5039975;28;20030;-58
2021/11/26 06:43:15;;;;;;;18.40;11.30;;;;;;;3.44;56.18;98748.81;5038939;28;20064;-59
2021/11/26 06:45:40;;;;;;;19.42;11.18;;;;;;;3.65;56.34;98785.34;5040824;28;20234;-58
2021/11/26 06:48:06;;;;;;;17.48;10.65;;;;;;;3.64;56.31;98775.72;5039276;28;20069;-58
2021/11/26 06:50:32;;;;;;;19.92;11.23;;;;;;;3.66;56.17;98787.03;5039857;28;20028;-60
2021/11/26 06:52:57;;;;;;;16.05;11.20;;;;;;;3.61;56.68;98776.75;5041099;28;20021;-58
2021/11/26 06:55:23;;;;;;;17.30;10.43;;;;;;;3.69;56.80;98768.28;5042118;28;20037;-58
2021/11/26 06:57:49;;;;;;;20.10;10.73;;;;;;;3.63;56.45;98771.38;5042734;28;20150;-57
2021/11/26 07:00:17;;;;;;;17.80;11.23;;;;;;;3.69;56.42;98778.88;5041038;28;20033;-56
2021/11/26 07:02:43;;;;;;;17.30;9.93;;;;;;;3.73;56.24;98789.13;5038535;28;20108;-57
2021/11/26 07:05:10;;;;;;;16.95;10.52;;;;;;;3.73;56.19;98780.34;5039318;28;20158;-56
2021/11/26 07:07:36;;;;;;;18.08;10.00;;;;;;;3.79;56.71;98787.03;5041114;28;20032;-58
2021/11/26 07:10:04;;;;;;;19.75;10.80;;;;;;;3.84;56.44;98798.16;5034581;28;20052;-61
2021/11/26 07:12:31;;;;;;;16.83;10.25;;;;;;;3.81;56.51;98796.53;5039821;28;20029;-59
2021/11/26 07:14:56;;;;;;;18.13;10.38;;;;;;;3.82;56.02;98795.59;5039461;28;20029;-59
2021/11/26 07:17:22;;;;;;;17.92;9.55;;;;;;;3.83;56.72;98783.22;5043979;28;20025;-61
2021/11/26 07:19:49;;;;;;;17.58;11.18;;;;;;;3.86;56.19;98781.22;5042832;28;20033;-59
2021/11/26 07:22:17;;;;;;;15.43;10.25;;;;;;;3.90;56.61;98783.63;5027787;28;20025;-59
2021/11/26 07:24:44;;;;;;;18.30;10.88;;;;;;;3.70;56.09;98738.22;5044656;28;20065;-57
2021/11/26 07:27:10;;;;;;;17.13;10.32;;;;;;;3.93;56.22;98775.47;5039547;28;20029;-59
2021/11/26 07:29:36;;;;;;;17.55;10.15;;;;;;;3.87;56.46;98750.25;5037964;28;20049;-59
2021/11/26 07:32:02;;;;;;;15.40;10.23;;;;;;;3.98;56.22;98733.63;5038419;28;20037;-58
2021/11/26 07:34:28;;;;;;;17.73;10.60;;;;;;;4.10;55.98;98724.81;5044035;28;20403;-59
2021/11/26 07:36:55;;;;;;;17.15;10.15;;;;;;;4.17;55.42;98730.50;5047255;28;20116;-58
2021/11/26 07:39:24;;;;;;;18.00;8.45;;;;;;;4.24;55.16;98733.56;5045190;28;20442;-57
2021/11/26 07:41:50;;;;;;;18.40;10.30;;;;;;;4.20;55.25;98710.91;5040691;28;20086;-59
2021/11/26 07:44:16;;;;;;;19.45;10.23;;;;;;;4.26;55.29;98719.25;5042314;28;20060;-62
2021/11/26 07:46:42;;;;;;;17.73;9.93;;;;;;;4.37;54.89;98712.31;5060495;28;20075;-55
2021/11/26 07:49:08;;;;;;;16.83;10.75;;;;;;;4.41;54.77;98735.84;5065106;28;20135;-57
2021/11/26 07:51:34;;;;;;;19.30;10.35;;;;;;;4.41;54.46;98719.94;5051093;28;20091;-55
2021/11/26 07:53:59;;;;;;;17.35;9.93;;;;;;;4.37;54.98;98699.94;5042626;28;20037;-55
2021/11/26 07:56:26;;;;;;;15.57;9.95;;;;;;;4.38;55.04;98698.09;5065152;28;20397;-60
2021/11/26 07:58:51;;;;;;;17.15;10.15;;;;;;;4.40;55.05;98688.22;5062128;28;20040;-57
2021/11/26 08:01:17;;;;;;;17.27;10.20;;;;;;;4.30;54.88;98682.75;5062404;28;20428;-58
2021/11/26 08:03:43;;;;;;;14.50;9.80;;;;;;;4.38;54.90;98690.16;5051486;28;20410;-59
2021/11/26 08:06:09;;;;;;;15.90;10.18;;;;;;;4.42;54.91;98697.78;5048910;28;20028;-60
2021/11/26 08:08:35;;;;;;;19.73;11.02;;;;;;;4.38;55.19;98696.31;5048091;28;20032;-60
2021/11/26 08:11:01;;;;;;;15.43;10.30;;;;;;;4.33;55.34;98695.78;5043542;28;20075;-56
2021/11/26 08:13:27;;;;;;;16.25;10.48;;;;;;;4.43;55.23;98701.25;5052630;28;20025;-60
2021/11/26 08:15:52;;;;;;;19.13;10.73;;;;;;;4.45;55.43;98701.97;5050922;28;20087;-59
2021/11/26 08:18:18;;;;;;;17.25;11.00;;;;;;;4.47;55.01;98692.16;5053508;28;20036;-60
2021/11/26 08:20:44;;;;;;;18.90;10.93;;;;;;;4.40;55.50;98688.22;5059151;28;20090;-57
2021/11/26 08:23:09;;;;;;;20.38;11.52;;;;;;;4.44;55.32;98690.56;5043327;28;20021;-57
2021/11/26 08:25:36;;;;;;;17.98;10.20;;;;;;;4.49;55.31;98684.06;5046275;28;20519;-60
2021/11/26 08:28:03;;;;;;;16.05;10.13;;;;;;;4.54;54.29;98695.16;5051255;28;20112;-62
2021/11/26 08:30:29;;;;;;;20.05;10.60;;;;;;;4.48;54.90;98698.28;5045221;28;20088;-59
2021/11/26 08:32:55;;;;;;;17.08;10.27;;;;;;;4.43;55.32;98685.34;5047693;28;20057;-60
2021/11/26 08:35:22;;;;;;;16.25;10.35;;;;;;;4.12;55.45;98637.28;5050829;28;20025;-60
2021/11/26 08:37:48;;;;;;;18.15;11.13;;;;;;;4.38;55.21;98691.00;5048942;28;20055;-59
2021/11/26 08:40:15;;;;;;;23.13;10.85;;;;;;;4.24;55.56;98659.38;5046577;28;20061;-59
2021/11/26 08:42:41;;;;;;;15.25;9.45;;;;;;;4.44;55.65;98677.31;5046501;28;20053;-58
2021/11/26 08:45:07;;;;;;;17.00;9.82;;;;;;;4.45;55.04;98679.00;5044856;28;20508;-62
2021/11/26 08:47:34;;;;;;;15.88;9.18;;;;;;;4.49;54.88;98678.75;5047448;28;20098;-59
2021/11/26 08:50:00;;;;;;;14.93;9.30;;;;;;;4.48;55.30;98679.72;5048376;28;20107;-62
2021/11/26 08:52:27;;;;;;;16.27;9.52;;;;;;;4.43;55.45;98691.50;5060433;28;20464;-62
2021/11/26 08:54:53;;;;;;;21.73;10.52;;;;;;;4.35;56.00;98685.94;5060728;28;20048;-61
2021/11/26 08:57:25;;;;;;;17.17;10.63;;;;;;;4.38;55.55;98691.00;5067342;28;20031;-58
2021/11/26 08:59:51;;;;;;;17.65;10.40;;;;;;;4.37;55.27;98691.97;5055013;28;20475;-61
2021/11/26 09:02:17;;;;;;;17.27;9.80;;;;;;;4.36;56.15;98668.22;5064989;28;20029;-60
2021/11/26 09:04:43;;;;;;;15.07;10.30;;;;;;;4.44;55.58;98690.56;5062201;28;20032;-61
2021/11/26 09:07:08;;;;;;;17.90;10.85;;;;;;;4.45;55.46;98681.66;5054990;28;20548;-60
2021/11/26 09:09:34;;;;;;;18.98;10.38;;;;;;;4.46;55.28;98682.47;5044512;28;20029;-65
2021/11/26 09:12:02;;;;;;;16.38;10.45;;;;;;;4.49;55.44;98684.06;5043536;28;20112;-60
2021/11/26 09:14:27;;;;;;;17.42;10.20;;;;;;;4.47;55.57;98681.53;5043376;28;20032;-60
2021/11/26 09:16:53;;;;;;;17.48;10.02;;;;;;;4.55;55.51;98688.91;5043566;28;20037;-62
2021/11/26 09:19:19;;;;;;;17.20;10.05;;;;;;;4.59;55.21;98698.34;5042164;28;20121;-61
2021/11/26 09:21:44;;;;;;;17.77;10.25;;;;;;;4.57;55.59;98689.63;5043088;28;20125;-61
2021/11/26 09:24:10;;;;;;;17.17;11.00;;;;;;;4.32;55.28;98643.75;5042169;28;20082;-56
2021/11/26 09:26:37;;;;;;;17.52;9.77;;;;;;;4.53;55.31;98704.06;5043114;28;20095;-59
2021/11/26 09:29:03;;;;;;;16.67;9.75;;;;;;;4.48;56.03;98677.06;5041217;28;20178;-55
2021/11/26 09:31:29;;;;;;;17.05;10.55;;;;;;;4.45;55.94;98676.34;5039462;28;20045;-62
2021/11/26 09:33:55;;;;;;;18.10;11.07;;;;;;;4.40;56.07;98678.50;5047748;28;20103;-58
2021/11/26 09:36:23;;;;;;;17.13;10.38;;;;;;;4.47;55.88;98688.63;5063399;28;20078;-57
2021/11/26 09:38:48;;;;;;;18.98;10.38;;;;;;;4.47;56.26;98684.19;5059620;28;20033;-53
2021/11/26 09:41:15;;;;;;;15.65;9.73;;;;;;;4.52;55.93;98686.47;5069431;28;20043;-56
2021/11/26 09:43:41;;;;;;;15.40;10.73;;;;;;;4.52;55.83;98673.22;5053924;28;20067;-58
2021/11/26 09:46:07;;;;;;;14.00;9.77;;;;;;;4.54;55.95;98684.56;5068858;28;20033;-58
2021/11/26 09:48:35;;;;;;;18.30;10.70;;;;;;;4.56;56.14;98691.47;5055083;28;20109;-58
2021/11/26 09:51:03;;;;;;;14.63;10.02;;;;;;;4.51;56.32;98679.50;5056008;28;20419;-59
2021/11/26 09:53:29;;;;;;;20.48;10.43;;;;;;;4.56;55.93;98683.50;5054122;28;20106;-61
2021/11/26 09:56:04;;;;;;;16.65;10.32;;;;;;;4.55;56.25;98694.19;5066872;28;20052;-56
2021/11/26 09:58:32;;;;;;;16.20;10.38;;;;;;;4.49;56.23;98690.22;5059039;28;20021;-63
2021/11/26 10:01:01;;;;;;;18.63;10.18;;;;;;;4.48;56.83;98674.41;5057030;28;20116;-61
2021/11/26 10:03:40;;;;;;;18.02;10.38;;;;;;;4.63;56.68;98691.84;5065308;28;20056;-55
2021/11/26 10:06:18;;;;;;;15.52;10.02;;;;;;;4.60;56.68;98681.47;5041185;28;20051;-58
2021/11/26 10:09:13;;;;;;;16.63;10.45;;;;;;;4.62;56.83;98679.56;5058240;28;20449;-57
2021/11/26 10:11:57;;;;;;;17.23;10.68;;;;;;;4.61;56.88;98691.13;5066300;28;20128;-56
2021/11/26 10:14:22;;;;;;;17.20;10.50;;;;;;;4.53;56.77;98689.03;5057981;28;20118;-56
2021/11/26 10:16:58;;;;;;;21.65;10.52;;;;;;;4.47;57.41;98673.59;5058705;28;20071;-54
2021/11/26 10:19:38;;;;;;;18.27;10.82;;;;;;;4.50;57.28;98678.66;5066184;28;20034;-53
2021/11/26 10:22:14;;;;;;;18.73;10.35;;;;;;;4.52;57.56;98700.59;5040165;28;20029;-59
2021/11/26 10:24:40;;;;;;;18.08;10.82;;;;;;;4.44;57.31;98685.25;5060240;28;20157;-57
2021/11/26 10:27:06;;;;;;;15.75;9.75;;;;;;;4.45;57.78;98686.94;5063567;28;20029;-57
2021/11/26 10:29:34;;;;;;;21.05;10.93;;;;;;;4.43;57.53;98688.88;5053467;28;20045;-55
2021/11/26 10:32:13;;;;;;;16.25;10.20;;;;;;;4.44;57.84;98695.00;5068707;28;20028;-62
2021/11/26 10:34:41;;;;;;;16.55;10.20;;;;;;;4.47;57.87;98693.94;5059968;28;20496;-58
2021/11/26 10:37:27;;;;;;;17.23;11.00;;;;;;;4.49;57.70;98684.94;5063959;28;20028;-63
2021/11/26 10:39:53;;;;;;;16.30;9.88;;;;;;;4.39;57.88;98698.00;5050205;28;20074;-60
2021/11/26 10:42:29;;;;;;;18.55;10.18;;;;;;;4.42;58.11;98703.06;5057112;28;20029;-60
2021/11/26 10:45:01;;;;;;;19.92;10.68;;;;;;;4.43;57.87;98717.16;5058005;28;20232;-57
2021/11/26 10:47:47;;;;;;;16.25;10.10;;;;;;;4.44;58.04;98709.09;5066931;28;20031;-60
2021/11/26 10:50:36;;;;;;;18.35;10.23;;;;;;;4.42;57.93;98703.06;5057747;28;20041;-58
2021/11/26 11:01:05;;;;;;;16.85;10.18;;;;;;;4.34;58.64;98694.84;5061789;28;20040;-56
2021/11/26 11:03:31;;;;;;;16.67;10.02;;;;;;;4.33;58.66;98693.13;5070250;28;20373;-63
2021/11/26 11:05:57;;;;;;;17.23;10.98;;;;;;;4.32;58.49;98688.78;5057776;28;20043;-58
2021/11/26 11:08:24;;;;;;;20.50;10.23;;;;;;;4.31;58.95;98690.59;5066472;28;20037;-57
2021/11/26 11:10:51;;;;;;;18.20;10.30;;;;;;;4.31;58.59;98689.75;5065173;28;20035;-57
2021/11/26 11:13:23;;;;;;;17.73;11.00;;;;;;;4.34;58.75;98700.16;5058518;28;20469;-60
2021/11/26 11:15:50;;;;;;;20.77;10.93;;;;;;;4.36;58.48;98700.88;5069742;28;20112;-58
2021/11/26 11:18:16;;;;;;;18.02;10.13;;;;;;;4.36;58.42;98708.84;5058696;28;20020;-58
2021/11/26 11:20:46;;;;;;;17.27;9.80;;;;;;;4.35;58.27;98700.97;5063269;28;20029;-58
2021/11/26 11:23:14;;;;;;;19.02;10.50;;;;;;;4.34;58.70;98700.16;5067726;28;20035;-57
2021/11/26 11:25:41;;;;;;;17.77;10.27;;;;;;;4.33;58.75;98706.38;5056338;28;20033;-59
2021/11/26 11:28:09;;;;;;;17.55;11.05;;;;;;;4.36;58.20;98698.22;5068268;28;20048;-57
2021/11/26 11:30:37;;;;;;;17.15;10.68;;;;;;;4.37;58.61;98718.47;5062551;28;20063;-59
2021/11/26 11:33:03;;;;;;;20.42;11.15;;;;;;;4.33;58.44;98702.91;5060399;28;20453;-58
2021/11/26 11:35:31;;;;;;;16.55;10.75;;;;;;;4.36;58.26;98715.91;5069985;28;20510;-56